Time;durP1;ratioP1;P1;durP2;ratioP2;P2;SDS_P1;SDS_P2;PMS_P1;PMS_P2;Temp;Humidity;BMP_temperature;BMP_pressure;BME280_temperature;BME280_humidity;BME280_pressure;Samples;Min_cycle;Max_cycle;Signal;HPM_P1;HPM_P2
2021/12/28 00:01:17;;;;;;;18.10;13.07;;;4.10;99.90;;;;;;2105916;67;20862;-70
2021/12/28 00:04:00;;;;;;;17.77;12.82;;;4.20;99.90;;;;;;2118225;67;20177;-70
2021/12/28 00:06:41;;;;;;;17.45;13.13;;;4.20;99.90;;;;;;2105619;67;20419;-71
2021/12/28 00:09:25;;;;;;;20.88;14.20;;;4.20;99.90;;;;;;2111397;67;20873;-70
2021/12/28 00:12:17;;;;;;;17.92;13.05;;;4.20;99.90;;;;;;2112845;67;20262;-71
2021/12/28 00:15:06;;;;;;;15.38;12.75;;;4.30;99.90;;;;;;2117972;67;20831;-71
2021/12/28 00:18:00;;;;;;;18.40;13.90;;;4.30;99.90;;;;;;2122593;67;20196;-71
2021/12/28 00:20:46;;;;;;;19.17;13.98;;;4.30;99.90;;;;;;2115552;67;20201;-71
2021/12/28 00:23:47;;;;;;;18.20;13.10;;;4.30;99.90;;;;;;2104458;67;20262;-71
2021/12/28 00:26:29;;;;;;;19.23;13.93;;;4.30;99.90;;;;;;2107103;67;20310;-71
2021/12/28 00:29:12;;;;;;;19.60;14.88;;;4.30;99.90;;;;;;2113687;67;20794;-71
2021/12/28 00:31:56;;;;;;;18.70;14.38;;;4.40;99.90;;;;;;2119524;67;20196;-70
2021/12/28 00:34:38;;;;;;;19.05;14.30;;;4.40;99.90;;;;;;2130735;67;20199;-70
2021/12/28 00:37:21;;;;;;;17.42;13.27;;;4.30;99.90;;;;;;2125752;67;20246;-70
2021/12/28 00:40:05;;;;;;;;;;;4.40;99.90;;;;;;2133876;66;20199;-70
2021/12/28 00:42:47;;;;;;;20.58;14.45;;;4.40;99.90;;;;;;2144421;66;20159;-70
2021/12/28 00:45:30;;;;;;;21.17;15.93;;;4.30;99.90;;;;;;2147384;66;20203;-70
2021/12/28 00:48:14;;;;;;;22.35;14.43;;;4.40;99.90;;;;;;2130872;67;20192;-70
2021/12/28 00:50:57;;;;;;;24.23;16.33;;;4.40;99.90;;;;;;2137641;67;20323;-70
2021/12/28 00:53:39;;;;;;;20.83;15.38;;;4.40;99.90;;;;;;2146575;66;20304;-69
2021/12/28 00:56:25;;;;;;;20.02;16.10;;;4.30;99.90;;;;;;2146298;66;20254;-71
2021/12/28 00:59:12;;;;;;;20.60;15.48;;;4.40;99.90;;;;;;2146689;66;20278;-70
2021/12/28 01:01:56;;;;;;;21.38;17.27;;;4.40;99.90;;;;;;2146712;66;20162;-70
2021/12/28 01:04:38;;;;;;;20.10;16.48;;;4.30;99.90;;;;;;2139718;66;20353;-70
2021/12/28 01:07:19;;;;;;;20.33;15.85;;;4.30;99.90;;;;;;2132027;67;20187;-69
2021/12/28 01:10:03;;;;;;;21.35;15.70;;;4.40;99.90;;;;;;2116717;67;20215;-70
2021/12/28 01:12:46;;;;;;;22.35;16.75;;;4.30;99.90;;;;;;2110069;67;20706;-70
2021/12/28 01:15:31;;;;;;;19.90;16.80;;;4.40;99.90;;;;;;2124505;67;20208;-70
2021/12/28 01:18:16;;;;;;;24.80;16.58;;;4.40;99.90;;;;;;2129005;66;20397;-73
2021/12/28 01:21:01;;;;;;;25.77;18.40;;;4.40;99.90;;;;;;2138935;66;20880;-70
2021/12/28 01:23:42;;;;;;;22.98;17.65;;;4.40;99.90;;;;;;2151420;66;20255;-70
2021/12/28 01:26:24;;;;;;;28.55;20.17;;;4.70;99.90;;;;;;2161762;66;20169;-69
2021/12/28 01:29:06;;;;;;;31.35;21.55;;;4.40;99.90;;;;;;2153464;66;20661;-71
2021/12/28 01:31:49;;;;;;;29.50;20.45;;;4.40;99.90;;;;;;2152838;66;20834;-70
2021/12/28 01:34:34;;;;;;;30.98;21.23;;;4.50;99.90;;;;;;2154986;66;20198;-70
2021/12/28 01:37:15;;;;;;;33.05;22.52;;;4.90;99.90;;;;;;2142330;66;20258;-69
2021/12/28 01:39:57;;;;;;;35.17;24.15;;;4.50;99.90;;;;;;2125130;67;20202;-69
2021/12/28 01:43:11;;;;;;;41.28;25.33;;;4.60;99.90;;;;;;2132063;67;20236;-69
2021/12/28 01:46:15;;;;;;;;;;;4.60;99.90;;;;;;2121386;67;20367;-70
2021/12/28 01:48:56;;;;;;;45.22;25.65;;;4.60;99.90;;;;;;2121473;67;20646;-70
2021/12/28 01:51:38;;;;;;;43.28;26.38;;;4.70;99.90;;;;;;2119995;67;20168;-69
2021/12/28 01:54:24;;;;;;;48.95;29.67;;;4.70;99.90;;;;;;2129553;67;20462;-70
2021/12/28 01:57:12;;;;;;;51.28;28.52;;;4.80;99.90;;;;;;2129144;67;20176;-72
2021/12/28 01:59:55;;;;;;;52.90;31.42;;;4.80;99.90;;;;;;2123242;67;20271;-71
2021/12/28 02:02:39;;;;;;;61.28;31.75;;;4.80;99.90;;;;;;2137532;66;20178;-70
2021/12/28 02:05:21;;;;;;;56.60;31.08;;;4.90;99.90;;;;;;2133342;67;20219;-70
2021/12/28 02:08:04;;;;;;;47.17;31.75;;;4.90;99.90;;;;;;2128926;67;20180;-69
2021/12/28 02:10:48;;;;;;;57.83;30.95;;;4.90;99.90;;;;;;2117912;67;20164;-68
2021/12/28 02:13:30;;;;;;;59.45;33.08;;;5.00;99.90;;;;;;2110762;67;20347;-70
2021/12/28 02:16:12;;;;;;;63.70;38.40;;;5.00;99.90;;;;;;2098050;68;20315;-69
2021/12/28 02:18:55;;;;;;;62.22;36.53;;;5.10;99.90;;;;;;2103002;68;20578;-69
2021/12/28 02:21:39;;;;;;;66.75;36.45;;;5.10;99.90;;;;;;2109745;67;20210;-70
2021/12/28 02:24:21;;;;;;;78.47;40.28;;;5.10;99.90;;;;;;2110858;67;20425;-70
2021/12/28 02:27:02;;;;;;;79.13;40.55;;;5.20;99.90;;;;;;2103679;68;20346;-69
2021/12/28 02:29:44;;;;;;;70.15;39.15;;;5.20;99.90;;;;;;2097156;68;20330;-70
2021/12/28 02:32:27;;;;;;;103.57;51.17;;;5.30;99.90;;;;;;2095707;68;20416;-69
2021/12/28 02:35:12;;;;;;;101.68;47.55;;;5.30;99.90;;;;;;2090004;68;20788;-71
2021/12/28 02:37:54;;;;;;;108.10;47.05;;;5.30;99.90;;;;;;2092174;68;20179;-69
2021/12/28 02:40:39;;;;;;;96.80;43.15;;;5.30;99.90;;;;;;2079586;68;20347;-70
2021/12/28 02:43:21;;;;;;;120.88;52.08;;;5.60;99.90;;;;;;2098493;68;20284;-69
2021/12/28 02:46:05;;;;;;;80.57;37.60;;;5.40;99.90;;;;;;2101188;67;20170;-70
2021/12/28 02:48:47;;;;;;;118.22;50.60;;;5.40;99.90;;;;;;2110764;67;20554;-69
2021/12/28 02:51:30;;;;;;;130.82;54.58;;;5.40;99.90;;;;;;2096367;68;20724;-69
2021/12/28 02:54:20;;;;;;;131.02;50.90;;;5.50;99.90;;;;;;2082502;68;20773;-70
2021/12/28 02:57:02;;;;;;;106.68;47.60;;;5.50;99.90;;;;;;2096244;67;20170;-69
2021/12/28 02:59:49;;;;;;;137.02;52.03;;;5.50;99.90;;;;;;2103227;68;20270;-70
2021/12/28 03:02:32;;;;;;;157.10;63.40;;;5.50;99.90;;;;;;2097407;68;20383;-70
2021/12/28 03:05:16;;;;;;;136.20;54.65;;;5.60;99.90;;;;;;2106263;67;20550;-70
2021/12/28 03:08:00;;;;;;;176.55;63.00;;;5.70;99.90;;;;;;2112929;67;20395;-70
2021/12/28 03:10:44;;;;;;;133.50;53.67;;;5.70;99.90;;;;;;2118577;67;20333;-71
2021/12/28 03:13:28;;;;;;;94.07;44.65;;;5.70;99.90;;;;;;2118408;67;20353;-70
2021/12/28 03:16:15;;;;;;;129.93;49.70;;;5.70;99.90;;;;;;2126523;67;20257;-70
2021/12/28 03:18:59;;;;;;;130.63;54.10;;;5.80;99.90;;;;;;2125854;67;20325;-69
2021/12/28 03:21:46;;;;;;;169.55;67.25;;;5.80;99.90;;;;;;2125977;67;20184;-69
2021/12/28 03:24:31;;;;;;;163.52;61.13;;;5.80;99.90;;;;;;2126215;67;20317;-69
2021/12/28 03:27:13;;;;;;;183.80;64.75;;;5.80;99.90;;;;;;2135355;67;20179;-70
2021/12/28 03:29:55;;;;;;;128.93;51.33;;;5.90;99.90;;;;;;2148720;66;20311;-70
2021/12/28 03:32:39;;;;;;;110.75;50.80;;;5.90;99.90;;;;;;2139849;66;20258;-69
2021/12/28 03:35:21;;;;;;;111.57;47.45;;;5.90;99.90;;;;;;2143684;66;20384;-70
2021/12/28 03:38:04;;;;;;;228.13;75.68;;;5.90;99.90;;;;;;2139862;67;20218;-69
2021/12/28 03:40:49;;;;;;;123.40;51.00;;;5.90;99.90;;;;;;2126399;67;20204;-70
2021/12/28 03:43:31;;;;;;;125.25;52.00;;;5.90;99.90;;;;;;2140823;66;20320;-70
2021/12/28 03:46:13;;;;;;;113.60;50.75;;;5.90;99.90;;;;;;2142515;66;20666;-69
2021/12/28 03:48:56;;;;;;;113.45;51.65;;;5.80;99.90;;;;;;2141240;66;20327;-69
2021/12/28 03:51:37;;;;;;;88.28;42.83;;;5.70;99.90;;;;;;2148295;66;20374;-69
2021/12/28 03:54:21;;;;;;;120.55;55.38;;;5.60;99.90;;;;;;2140586;67;20282;-70
2021/12/28 03:57:05;;;;;;;78.15;36.13;;;5.70;99.90;;;;;;2127885;67;20215;-69
2021/12/28 03:59:46;;;;;;;82.22;37.05;;;5.60;99.90;;;;;;2119339;67;20338;-69
2021/12/28 04:02:28;;;;;;;89.50;42.97;;;5.60;99.90;;;;;;2126190;67;20262;-69
2021/12/28 04:05:10;;;;;;;73.90;37.55;;;5.60;99.90;;;;;;2134451;67;20376;-69
2021/12/28 04:07:52;;;;;;;123.72;49.30;;;5.60;99.90;;;;;;2138093;66;20206;-70
2021/12/28 04:10:49;;;;;;;108.55;49.85;;;5.60;99.90;;;;;;2142669;66;20261;-67
2021/12/28 04:13:31;;;;;;;86.75;44.85;;;5.50;99.90;;;;;;2144982;66;20394;-70
2021/12/28 04:16:12;;;;;;;68.43;37.80;;;5.50;99.90;;;;;;2141846;66;20339;-69
2021/12/28 04:18:54;;;;;;;82.78;43.28;;;6.30;99.90;;;;;;2128045;67;20253;-69
2021/12/28 04:21:37;;;;;;;77.45;38.55;;;5.50;99.90;;;;;;2118754;67;20875;-69
2021/12/28 04:24:19;;;;;;;91.43;42.20;;;5.50;99.90;;;;;;2141705;66;20174;-68
2021/12/28 04:27:00;;;;;;;124.93;50.30;;;5.50;99.90;;;;;;2154806;66;20324;-69
2021/12/28 04:29:42;;;;;;;76.85;40.25;;;5.50;99.90;;;;;;2154759;66;20184;-69
2021/12/28 04:32:24;;;;;;;71.82;37.28;;;5.60;99.90;;;;;;2154428;66;20331;-69
2021/12/28 04:35:07;;;;;;;69.60;39.10;;;5.50;99.90;;;;;;2149634;66;20778;-70
2021/12/28 04:37:54;;;;;;;118.18;51.78;;;5.60;99.90;;;;;;2146183;66;20183;-69
2021/12/28 04:40:39;;;;;;;91.45;44.17;;;5.70;99.90;;;;;;2152789;66;20637;-70
2021/12/28 04:43:21;;;;;;;83.15;41.63;;;5.60;99.90;;;;;;2151399;66;20245;-69
2021/12/28 04:46:04;;;;;;;110.20;51.15;;;5.60;99.90;;;;;;2139594;67;20175;-70
2021/12/28 04:48:49;;;;;;;105.43;48.38;;;5.70;99.90;;;;;;2139329;66;20178;-69
2021/12/28 04:51:33;;;;;;;95.55;46.97;;;5.70;99.90;;;;;;2143555;66;20245;-69
2021/12/28 04:54:16;;;;;;;72.43;37.85;;;5.70;99.90;;;;;;2139583;67;20336;-70
2021/12/28 04:56:58;;;;;;;97.50;47.65;;;5.70;99.90;;;;;;2133873;67;20747;-70
2021/12/28 04:59:40;;;;;;;88.38;41.53;;;5.70;99.90;;;;;;2139952;66;20371;-70
2021/12/28 05:02:22;;;;;;;84.45;38.40;;;5.70;99.90;;;;;;2132400;67;20179;-70
2021/12/28 05:05:04;;;;;;;79.05;37.83;;;5.70;99.90;;;;;;2120726;67;20691;-70
2021/12/28 05:07:46;;;;;;;75.10;35.75;;;5.70;99.90;;;;;;2127796;67;20211;-69
2021/12/28 05:10:28;;;;;;;91.72;43.20;;;5.70;99.90;;;;;;2139380;67;20366;-69
2021/12/28 05:13:10;;;;;;;94.30;41.67;;;5.70;99.90;;;;;;2146758;66;20425;-68
2021/12/28 05:15:53;;;;;;;85.75;38.20;;;5.70;99.90;;;;;;2139659;67;20384;-69
2021/12/28 05:18:36;;;;;;;108.30;47.40;;;5.70;99.90;;;;;;2132215;67;20179;-68
2021/12/28 05:21:20;;;;;;;;;;;5.70;99.90;;;;;;2135695;66;20315;-70
2021/12/28 05:24:02;;;;;;;76.68;37.10;;;5.70;99.90;;;;;;2138472;66;20127;-68
2021/12/28 05:26:47;;;;;;;102.35;43.38;;;5.70;99.90;;;;;;2120448;67;20248;-69
2021/12/28 05:29:29;;;;;;;133.93;52.30;;;5.70;99.90;;;;;;2099049;68;20828;-70
2021/12/28 05:32:11;;;;;;;89.88;42.45;;;5.70;99.90;;;;;;2097190;68;20360;-70
2021/12/28 05:34:52;;;;;;;237.15;68.82;;;5.70;99.90;;;;;;2115090;67;20288;-70
2021/12/28 05:37:36;;;;;;;63.83;36.92;;;5.70;99.90;;;;;;2109662;67;20359;-69
2021/12/28 05:40:20;;;;;;;65.60;35.75;;;5.60;99.90;;;;;;2118085;67;20792;-69
2021/12/28 05:43:03;;;;;;;91.82;43.33;;;5.60;99.90;;;;;;2144277;66;20341;-69
2021/12/28 05:45:49;;;;;;;78.43;36.45;;;5.60;99.90;;;;;;2130762;67;20550;-69
2021/12/28 05:48:33;;;;;;;66.60;34.25;;;5.60;99.90;;;;;;2131714;67;20271;-70
2021/12/28 05:51:15;;;;;;;58.05;32.00;;;5.60;99.90;;;;;;2121438;67;20271;-69
2021/12/28 05:53:57;;;;;;;60.88;34.58;;;5.60;99.90;;;;;;2145559;66;20332;-70
2021/12/28 05:56:41;;;;;;;72.07;35.25;;;5.60;99.90;;;;;;2138355;67;20296;-70
2021/12/28 05:59:22;;;;;;;59.20;32.80;;;5.60;99.90;;;;;;2128824;67;20335;-69
2021/12/28 06:02:05;;;;;;;61.50;33.00;;;5.90;99.90;;;;;;2117757;67;20689;-69
2021/12/28 06:04:47;;;;;;;60.97;34.47;;;5.60;99.90;;;;;;2118022;67;20181;-69
2021/12/28 06:07:30;;;;;;;50.42;29.92;;;5.60;99.90;;;;;;2125653;67;20630;-69
2021/12/28 06:10:16;;;;;;;48.92;28.80;;;5.60;99.90;;;;;;2139562;67;20175;-70
2021/12/28 06:13:00;;;;;;;72.50;35.20;;;5.60;99.90;;;;;;2138929;67;20171;-70
2021/12/28 06:15:42;;;;;;;48.80;27.15;;;5.60;99.90;;;;;;2125747;67;20246;-69
2021/12/28 06:18:24;;;;;;;49.05;26.67;;;5.60;99.90;;;;;;2110933;67;20233;-70
2021/12/28 06:21:06;;;;;;;56.38;29.38;;;5.60;99.90;;;;;;2104027;68;20202;-70
2021/12/28 06:23:50;;;;;;;47.08;27.05;;;5.60;99.90;;;;;;2097425;68;20266;-69
2021/12/28 06:26:34;;;;;;;43.17;26.38;;;5.60;99.90;;;;;;2104026;67;20178;-69
2021/12/28 06:29:17;;;;;;;46.55;25.67;;;5.50;99.90;;;;;;2111027;67;20910;-70
2021/12/28 06:31:59;;;;;;;48.85;27.73;;;5.50;99.90;;;;;;2117424;67;20377;-70
2021/12/28 06:34:44;;;;;;;41.58;26.52;;;5.50;99.90;;;;;;1893080;67;15099797;-70
2021/12/28 06:37:26;;;;;;;46.03;25.33;;;5.50;99.90;;;;;;2111237;67;20201;-69
2021/12/28 06:40:11;;;;;;;46.90;25.35;;;5.50;99.90;;;;;;2105129;67;20503;-69
2021/12/28 06:42:53;;;;;;;45.63;26.70;;;5.50;99.90;;;;;;2114843;67;20200;-70
2021/12/28 06:45:35;;;;;;;49.63;26.33;;;5.50;99.90;;;;;;2125888;67;20361;-71
2021/12/28 06:48:17;;;;;;;45.10;26.02;;;5.50;99.90;;;;;;2132343;67;20759;-70
2021/12/28 06:50:59;;;;;;;44.15;25.70;;;5.60;99.90;;;;;;2147721;66;20229;-69
2021/12/28 06:53:41;;;;;;;52.78;27.63;;;5.50;99.90;;;;;;2136987;67;20252;-70
2021/12/28 06:56:23;;;;;;;42.92;23.85;;;5.50;99.90;;;;;;2137202;67;20261;-70
2021/12/28 06:59:04;;;;;;;43.80;24.40;;;5.60;99.90;;;;;;2118738;67;20200;-70
2021/12/28 07:01:46;;;;;;;41.17;22.70;;;5.60;99.90;;;;;;2118433;67;20326;-69
2021/12/28 07:04:28;;;;;;;46.53;25.92;;;5.50;99.90;;;;;;2112207;67;20284;-70
2021/12/28 07:07:11;;;;;;;37.92;22.80;;;5.50;99.90;;;;;;2116486;67;20379;-70
2021/12/28 07:09:54;;;;;;;48.20;25.40;;;5.40;99.90;;;;;;2113155;67;20318;-69
2021/12/28 07:12:41;;;;;;;44.88;24.98;;;5.40;99.90;;;;;;2140470;67;20348;-69
2021/12/28 07:15:26;;;;;;;48.78;26.17;;;5.40;99.90;;;;;;2142587;66;20877;-70
2021/12/28 07:18:08;;;;;;;45.85;25.80;;;5.30;99.90;;;;;;2133391;67;20202;-70
2021/12/28 07:20:50;;;;;;;47.90;25.95;;;5.30;99.90;;;;;;2139307;66;20218;-70
2021/12/28 07:23:32;;;;;;;48.75;26.52;;;5.30;99.90;;;;;;2147629;66;20282;-70
2021/12/28 07:26:14;;;;;;;50.67;26.08;;;5.20;99.90;;;;;;2146984;66;20270;-70
2021/12/28 07:28:56;;;;;;;45.92;26.70;;;5.20;99.90;;;;;;2151142;66;20811;-70
2021/12/28 07:31:38;;;;;;;50.35;27.83;;;5.20;99.90;;;;;;2153094;66;20254;-69
2021/12/28 07:34:19;;;;;;;45.83;26.00;;;5.10;99.90;;;;;;2147625;66;20218;-68
2021/12/28 07:37:01;;;;;;;45.38;25.17;;;5.10;99.90;;;;;;2161215;66;20205;-69
2021/12/28 07:39:42;;;;;;;51.75;28.20;;;5.10;99.90;;;;;;2162027;66;20239;-69
2021/12/28 07:42:26;;;;;;;52.55;25.08;;;5.10;99.90;;;;;;2169370;66;20337;-69
2021/12/28 07:45:12;;;;;;;53.05;26.45;;;5.20;99.90;;;;;;2139757;66;20282;-69
2021/12/28 07:47:54;;;;;;;47.65;25.42;;;5.20;99.90;;;;;;2139767;66;20736;-69
2021/12/28 07:50:36;;;;;;;42.95;24.83;;;5.30;99.90;;;;;;2123577;67;20309;-69
2021/12/28 07:53:17;;;;;;;46.60;24.00;;;5.40;99.90;;;;;;2148631;66;20232;-69
2021/12/28 07:56:02;;;;;;;43.47;23.75;;;5.40;99.90;;;;;;2155561;66;20256;-68
2021/12/28 07:58:44;;;;;;;44.30;23.58;;;5.50;99.90;;;;;;2168709;65;20227;-68
2021/12/28 08:01:26;;;;;;;47.40;25.00;;;5.50;99.90;;;;;;2154222;66;20330;-69
2021/12/28 08:04:08;;;;;;;42.35;23.92;;;5.50;99.90;;;;;;2140046;67;20274;-70
2021/12/28 08:06:50;;;;;;;43.42;23.33;;;5.60;99.90;;;;;;2123679;67;20381;-69
2021/12/28 08:09:32;;;;;;;44.03;24.02;;;5.50;99.90;;;;;;2139416;67;20338;-69
2021/12/28 08:12:16;;;;;;;40.30;22.95;;;5.70;99.90;;;;;;2132770;67;20355;-69
2021/12/28 08:14:58;;;;;;;38.72;21.67;;;5.60;99.90;;;;;;2132276;67;20756;-70
2021/12/28 08:17:40;;;;;;;36.03;21.15;;;5.50;99.90;;;;;;2127313;67;20753;-69
2021/12/28 08:20:22;;;;;;;37.97;20.88;;;5.40;99.90;;;;;;2118025;67;20214;-70
2021/12/28 08:23:07;;;;;;;28.77;18.58;;;5.40;99.90;;;;;;2125333;67;20199;-70
2021/12/28 08:25:51;;;;;;;35.80;19.05;;;5.40;99.90;;;;;;2132671;67;20870;-69
2021/12/28 08:28:35;;;;;;;33.63;18.75;;;5.40;99.90;;;;;;2131749;67;20296;-70
2021/12/28 08:31:19;;;;;;;36.85;19.90;;;5.40;99.90;;;;;;2124682;67;20249;-70
2021/12/28 08:34:03;;;;;;;33.22;18.45;;;5.50;99.90;;;;;;2118663;67;20298;-68
2021/12/28 08:36:45;;;;;;;31.30;18.50;;;5.50;99.90;;;;;;2131947;67;20750;-69
2021/12/28 08:39:28;;;;;;;32.90;17.60;;;5.60;99.90;;;;;;2127841;67;20234;-69
2021/12/28 08:42:14;;;;;;;33.45;18.17;;;5.60;99.90;;;;;;2125277;67;20200;-68
2021/12/28 08:44:58;;;;;;;31.55;17.00;;;5.60;99.90;;;;;;2129856;67;20307;-70
2021/12/28 08:47:39;;;;;;;32.17;17.58;;;5.70;99.90;;;;;;2119564;67;20338;-69
2021/12/28 08:50:25;;;;;;;32.85;16.77;;;5.70;99.90;;;;;;2118250;67;20670;-70
2021/12/28 08:53:11;;;;;;;28.00;15.07;;;5.80;99.90;;;;;;2111080;67;20189;-70
2021/12/28 08:55:53;;;;;;;28.73;16.08;;;5.80;99.90;;;;;;2104384;68;20203;-70
2021/12/28 08:58:38;;;;;;;31.63;15.90;;;5.80;99.90;;;;;;2107073;67;20725;-69
2021/12/28 09:01:19;;;;;;;25.60;14.98;;;5.90;99.90;;;;;;2120547;67;20318;-70
2021/12/28 09:04:06;;;;;;;23.65;14.35;;;6.00;99.90;;;;;;2114454;67;20700;-70
2021/12/28 09:06:50;;;;;;;25.33;14.25;;;6.10;99.90;;;;;;2103254;68;20429;-68
2021/12/28 09:09:31;;;;;;;30.48;14.93;;;6.20;99.90;;;;;;2096810;68;20382;-70
2021/12/28 09:12:13;;;;;;;22.77;13.55;;;6.20;99.90;;;;;;2094437;68;20205;-69
2021/12/28 09:14:55;;;;;;;23.77;14.13;;;6.40;99.90;;;;;;2102177;67;20202;-69
2021/12/28 09:17:39;;;;;;;20.02;12.43;;;6.40;99.90;;;;;;2105284;67;20173;-71
2021/12/28 09:20:23;;;;;;;24.88;12.15;;;6.50;99.90;;;;;;2118573;67;20492;-70
2021/12/28 09:23:05;;;;;;;23.38;12.45;;;6.50;99.90;;;;;;2117962;67;20206;-70
2021/12/28 09:25:47;;;;;;;20.98;13.23;;;6.60;99.90;;;;;;2103614;67;20175;-69
2021/12/28 09:28:30;;;;;;;17.65;10.70;;;6.60;99.90;;;;;;2118015;67;20251;-70
2021/12/28 09:31:15;;;;;;;21.60;10.90;;;6.60;99.90;;;;;;2113613;67;20318;-69
2021/12/28 09:33:57;;;;;;;20.02;10.30;;;6.60;99.90;;;;;;2106723;67;20439;-70
2021/12/28 09:36:41;;;;;;;23.10;10.15;;;6.70;99.90;;;;;;2098948;68;20405;-70
2021/12/28 09:39:28;;;;;;;19.88;10.15;;;6.70;99.90;;;;;;2098610;68;20358;-69
2021/12/28 09:42:11;;;;;;;19.10;10.48;;;6.80;99.90;;;;;;2120938;67;20212;-71
2021/12/28 09:44:55;;;;;;;21.13;9.82;;;6.90;99.90;;;;;;2118952;67;20345;-70
2021/12/28 09:47:37;;;;;;;21.98;10.55;;;7.00;99.90;;;;;;2126452;67;20802;-70
2021/12/28 09:50:22;;;;;;;18.65;9.00;;;7.10;99.90;;;;;;2116583;67;20247;-73
2021/12/28 09:53:04;;;;;;;17.80;9.18;;;7.20;99.90;;;;;;2110702;67;20372;-73
2021/12/28 09:55:46;;;;;;;17.60;9.02;;;7.30;99.90;;;;;;2110431;67;20296;-73
2021/12/28 09:58:28;;;;;;;20.23;8.75;;;7.30;99.90;;;;;;2116988;67;20201;-74
2021/12/28 10:01:10;;;;;;;16.05;8.85;;;7.30;99.90;;;;;;2115287;67;20279;-75
2021/12/28 10:03:52;;;;;;;15.65;8.63;;;7.30;99.90;;;;;;2139370;66;20263;-74
2021/12/28 10:06:34;;;;;;;13.52;8.27;;;7.20;99.90;;;;;;2138130;67;20509;-73
2021/12/28 10:09:36;;;;;;;16.02;8.90;;;7.40;99.90;;;;;;2123434;67;20738;-72
2021/12/28 10:12:51;;;;;;;14.73;8.48;;;7.40;99.90;;;;;;2131343;67;20199;-71
2021/12/28 10:15:53;;;;;;;19.52;7.85;;;7.40;99.90;;;;;;2131783;67;20369;-71
2021/12/28 10:18:35;;;;;;;17.10;7.25;;;7.50;99.90;;;;;;2134599;67;20209;-71
2021/12/28 10:21:18;;;;;;;22.13;9.57;;;7.50;99.90;;;;;;2132126;67;20224;-74
2021/12/28 10:24:00;;;;;;;16.38;7.97;;;7.50;99.90;;;;;;2130016;67;20369;-71
2021/12/28 10:26:42;;;;;;;11.55;8.10;;;7.60;99.90;;;;;;2114783;67;20234;-71
2021/12/28 10:29:30;;;;;;;15.95;7.93;;;7.80;99.90;;;;;;2132204;67;20365;-72
2021/12/28 10:32:23;;;;;;;14.15;7.95;;;7.60;99.90;;;;;;2141892;66;20206;-71
2021/12/28 10:35:12;;;;;;;14.63;8.10;;;7.60;99.90;;;;;;2147795;66;20319;-70
2021/12/28 10:38:16;;;;;;;14.13;7.05;;;7.70;99.90;;;;;;2146920;66;20248;-70
2021/12/28 10:40:59;;;;;;;14.07;7.78;;;7.70;99.90;;;;;;2140193;66;20304;-70
2021/12/28 10:44:01;;;;;;;16.52;8.27;;;7.60;99.90;;;;;;2133977;67;20206;-71
2021/12/28 10:46:42;;;;;;;13.30;9.38;;;7.60;99.90;;;;;;2125451;67;20732;-71
2021/12/28 10:49:40;;;;;;;15.98;8.25;;;7.70;99.90;;;;;;2130832;67;20263;-69
2021/12/28 10:52:29;;;;;;;15.07;7.47;;;7.50;99.90;;;;;;2145989;66;20395;-69
2021/12/28 10:55:41;;;;;;;12.02;8.50;;;7.50;99.90;;;;;;2163156;66;20251;-71
2021/12/28 10:58:35;;;;;;;12.60;7.72;;;7.40;99.90;;;;;;2130121;66;20252;-71
2021/12/28 11:01:27;;;;;;;15.45;8.10;;;7.40;99.90;;;;;;2129941;67;20316;-70
2021/12/28 11:04:12;;;;;;;14.93;8.32;;;7.30;99.90;;;;;;2132412;66;20407;-70
2021/12/28 11:06:53;;;;;;;12.38;7.90;;;7.30;99.90;;;;;;2119494;67;20330;-68
2021/12/28 11:09:44;;;;;;;15.85;8.85;;;7.30;99.90;;;;;;2128875;67;20179;-68
2021/12/28 11:12:45;;;;;;;17.10;9.15;;;7.30;99.90;;;;;;2135727;66;20191;-67
2021/12/28 11:15:36;;;;;;;18.65;7.75;;;7.20;99.90;;;;;;2152350;66;20704;-68
2021/12/28 11:18:22;;;;;;;13.65;8.32;;;7.20;99.90;;;;;;2136676;66;20174;-68
2021/12/28 11:21:25;;;;;;;21.67;9.35;;;7.20;99.90;;;;;;2117545;67;20277;-67
2021/12/28 11:24:15;;;;;;;17.40;8.32;;;7.20;99.90;;;;;;2116764;67;20299;-68
2021/12/28 11:26:59;;;;;;;13.68;8.50;;;7.20;99.90;;;;;;2112459;67;20369;-68
2021/12/28 11:29:41;;;;;;;14.02;8.48;;;7.20;99.90;;;;;;2105601;67;20222;-68
2021/12/28 11:32:25;;;;;;;15.98;8.13;;;7.30;99.90;;;;;;2117862;67;20262;-68
2021/12/28 11:35:09;;;;;;;16.60;9.45;;;7.30;99.90;;;;;;2120165;67;20168;-68
2021/12/28 11:37:51;;;;;;;13.63;8.32;;;7.30;99.90;;;;;;2124681;67;20184;-69
2021/12/28 11:40:33;;;;;;;13.20;9.02;;;7.30;99.90;;;;;;2115112;67;20177;-68
2021/12/28 11:43:16;;;;;;;14.50;9.95;;;7.30;99.90;;;;;;2123707;67;20196;-69
2021/12/28 11:46:02;;;;;;;14.65;9.20;;;7.30;99.90;;;;;;2124275;67;20648;-68
2021/12/28 11:48:47;;;;;;;11.82;7.75;;;7.30;99.90;;;;;;2140785;66;20182;-69
2021/12/28 11:51:29;;;;;;;14.23;8.55;;;7.40;99.90;;;;;;2140673;66;20194;-68
2021/12/28 11:54:14;;;;;;;15.15;8.63;;;7.30;99.90;;;;;;2136788;66;20171;-69
2021/12/28 11:57:07;;;;;;;14.48;9.30;;;7.40;99.90;;;;;;2138834;66;20885;-69
2021/12/28 12:00:02;;;;;;;15.38;9.32;;;7.40;99.90;;;;;;2139566;66;20563;-69
2021/12/28 12:03:08;;;;;;;18.40;9.68;;;7.40;99.90;;;;;;2137543;66;20712;-69
2021/12/28 12:05:54;;;;;;;17.73;11.45;;;7.40;99.90;;;;;;2130440;67;20231;-68
2021/12/28 12:09:02;;;;;;;21.17;11.23;;;7.40;99.90;;;;;;2143677;66;20296;-66
2021/12/28 12:12:16;;;;;;;16.73;10.18;;;7.40;99.90;;;;;;2127045;67;20180;-67
2021/12/28 12:15:14;;;;;;;18.05;11.93;;;7.50;99.90;;;;;;2138098;66;20233;-68
2021/12/28 12:18:02;;;;;;;17.55;11.93;;;7.50;99.90;;;;;;2138826;66;20332;-67
2021/12/28 12:20:49;;;;;;;17.83;10.15;;;7.60;99.90;;;;;;2147132;66;20181;-66
2021/12/28 12:23:41;;;;;;;13.48;10.52;;;7.50;99.90;;;;;;2152238;66;20892;-67
2021/12/28 12:26:34;;;;;;;15.40;10.82;;;7.60;99.90;;;;;;2153642;66;20300;-68
2021/12/28 12:29:21;;;;;;;17.40;10.57;;;7.60;99.90;;;;;;2138548;66;20234;-67
2021/12/28 12:32:04;;;;;;;21.00;10.32;;;7.60;99.90;;;;;;2139061;66;20312;-68
2021/12/28 12:34:47;;;;;;;17.20;10.35;;;7.60;99.90;;;;;;2138970;66;20225;-66
2021/12/28 12:37:41;;;;;;;15.93;10.05;;;7.60;99.90;;;;;;2150963;66;20219;-67
2021/12/28 12:40:43;;;;;;;13.32;10.50;;;7.60;99.90;;;;;;2150629;66;20328;-68
2021/12/28 12:43:25;;;;;;;15.45;10.15;;;7.60;99.90;;;;;;2144089;66;20394;-68
2021/12/28 12:46:16;;;;;;;14.20;9.98;;;7.60;99.90;;;;;;2136713;66;20203;-68
2021/12/28 12:49:01;;;;;;;18.00;10.52;;;7.60;99.90;;;;;;2141075;66;20181;-68
2021/12/28 12:51:50;;;;;;;15.98;10.05;;;7.70;99.90;;;;;;2153274;66;21575;-67
2021/12/28 12:54:57;;;;;;;17.38;10.75;;;7.70;99.90;;;;;;2148738;66;20650;-68
2021/12/28 12:57:40;;;;;;;16.45;10.45;;;7.70;99.90;;;;;;2158890;66;20301;-69
2021/12/28 13:00:23;;;;;;;15.35;10.73;;;7.70;99.90;;;;;;2165531;65;20244;-68
2021/12/28 13:03:05;;;;;;;20.98;12.55;;;7.70;99.90;;;;;;2157927;66;20252;-69
2021/12/28 13:05:50;;;;;;;15.60;10.00;;;7.80;99.90;;;;;;2155221;66;20768;-67
2021/12/28 13:08:32;;;;;;;13.30;9.50;;;7.80;99.90;;;;;;2137769;66;20309;-67
2021/12/28 13:11:32;;;;;;;16.05;10.73;;;7.80;99.90;;;;;;2143097;66;20166;-67
2021/12/28 13:14:18;;;;;;;17.52;10.70;;;7.80;99.90;;;;;;2150214;66;20244;-66
2021/12/28 13:17:14;;;;;;;14.75;9.82;;;7.90;99.90;;;;;;2144196;66;20463;-66
2021/12/28 13:20:12;;;;;;;17.13;11.05;;;8.20;99.90;;;;;;2134413;66;20699;-67
2021/12/28 13:22:57;;;;;;;16.02;11.27;;;7.90;99.90;;;;;;2135457;67;20690;-67
2021/12/28 13:25:46;;;;;;;15.27;10.68;;;7.90;99.90;;;;;;2132006;67;20776;-67
2021/12/28 13:28:29;;;;;;;17.15;11.60;;;8.00;99.90;;;;;;2123366;67;20192;-67
2021/12/28 13:31:14;;;;;;;14.55;12.07;;;8.00;99.90;;;;;;2132488;66;20328;-67
2021/12/28 13:34:00;;;;;;;16.80;11.55;;;8.00;99.90;;;;;;2138341;66;20190;-66
2021/12/28 13:36:54;;;;;;;14.90;10.18;;;8.00;99.90;;;;;;2128724;67;20411;-66
2021/12/28 13:39:44;;;;;;;19.08;12.65;;;7.90;99.90;;;;;;2121286;67;20443;-67
2021/12/28 13:42:30;;;;;;;17.45;11.63;;;7.90;99.90;;;;;;2117069;67;20225;-67
2021/12/28 13:45:42;;;;;;;16.25;12.00;;;7.90;99.90;;;;;;2121035;67;20243;-67
2021/12/28 13:48:36;;;;;;;13.85;11.30;;;7.90;99.90;;;;;;2129467;66;20182;-66
2021/12/28 13:51:23;;;;;;;18.77;11.60;;;7.90;99.90;;;;;;2142615;66;20177;-67
2021/12/28 13:54:05;;;;;;;14.73;12.02;;;7.90;99.90;;;;;;2141539;66;20413;-67
2021/12/28 13:56:48;;;;;;;17.02;11.60;;;7.90;99.90;;;;;;2155761;66;20271;-67
2021/12/28 13:59:31;;;;;;;17.15;12.15;;;7.90;99.90;;;;;;2150152;66;20198;-66
2021/12/28 14:02:16;;;;;;;17.23;12.73;;;7.90;99.90;;;;;;2149320;66;20208;-68
2021/12/28 14:04:58;;;;;;;19.05;13.05;;;7.90;99.90;;;;;;2149470;66;20324;-68
2021/12/28 14:07:41;;;;;;;16.08;12.95;;;7.90;99.90;;;;;;2146262;66;20812;-71
2021/12/28 14:10:50;;;;;;;17.45;12.25;;;7.90;99.90;;;;;;2129478;66;20336;-71